sensor_id;sensor_type;location;lat;lon;timestamp;P1;durP1;ratioP1;P2;durP2;ratioP2
41946;SDS011;27638;42.184;24.848;2023-04-15T00:02:22;2.92;;;1.60;;
41946;SDS011;27638;42.184;24.848;2023-04-15T00:04:47;2.90;;;1.85;;
41946;SDS011;27638;42.184;24.848;2023-04-15T00:07:13;4.10;;;2.10;;
41946;SDS011;27638;42.184;24.848;2023-04-15T00:09:40;3.17;;;2.13;;
41946;SDS011;27638;42.184;24.848;2023-04-15T00:12:05;3.10;;;1.98;;
41946;SDS011;27638;42.184;24.848;2023-04-15T00:14:32;4.93;;;2.42;;
41946;SDS011;27638;42.184;24.848;2023-04-15T00:17:01;3.40;;;2.50;;
41946;SDS011;27638;42.184;24.848;2023-04-15T00:19:27;3.58;;;2.20;;
41946;SDS011;27638;42.184;24.848;2023-04-15T00:21:53;3.53;;;2.38;;
41946;SDS011;27638;42.184;24.848;2023-04-15T00:24:19;4.32;;;2.25;;
41946;SDS011;27638;42.184;24.848;2023-04-15T00:26:45;4.18;;;2.05;;
41946;SDS011;27638;42.184;24.848;2023-04-15T00:29:11;3.78;;;2.22;;
41946;SDS011;27638;42.184;24.848;2023-04-15T00:31:36;14.73;;;6.60;;
41946;SDS011;27638;42.184;24.848;2023-04-15T00:34:02;6.50;;;2.85;;
41946;SDS011;27638;42.184;24.848;2023-04-15T00:36:27;4.63;;;3.05;;
41946;SDS011;27638;42.184;24.848;2023-04-15T00:38:53;13.10;;;4.75;;
41946;SDS011;27638;42.184;24.848;2023-04-15T00:41:20;8.38;;;3.90;;
41946;SDS011;27638;42.184;24.848;2023-04-15T00:43:47;4.43;;;2.47;;
41946;SDS011;27638;42.184;24.848;2023-04-15T00:46:12;6.20;;;3.03;;
41946;SDS011;27638;42.184;24.848;2023-04-15T00:48:40;4.47;;;2.50;;
41946;SDS011;27638;42.184;24.848;2023-04-15T00:51:06;2.63;;;1.98;;
41946;SDS011;27638;42.184;24.848;2023-04-15T00:53:33;3.58;;;3.00;;
41946;SDS011;27638;42.184;24.848;2023-04-15T00:55:59;3.78;;;2.40;;
41946;SDS011;27638;42.184;24.848;2023-04-15T00:58:25;5.70;;;3.22;;
41946;SDS011;27638;42.184;24.848;2023-04-15T01:00:52;10.23;;;4.13;;
41946;SDS011;27638;42.184;24.848;2023-04-15T01:03:19;4.70;;;3.20;;
41946;SDS011;27638;42.184;24.848;2023-04-15T01:05:45;3.58;;;2.65;;
41946;SDS011;27638;42.184;24.848;2023-04-15T01:08:11;3.90;;;2.67;;
41946;SDS011;27638;42.184;24.848;2023-04-15T01:10:37;6.18;;;3.92;;
41946;SDS011;27638;42.184;24.848;2023-04-15T01:13:03;6.50;;;3.85;;
41946;SDS011;27638;42.184;24.848;2023-04-15T01:15:29;3.40;;;2.60;;
41946;SDS011;27638;42.184;24.848;2023-04-15T01:17:58;5.63;;;3.40;;
41946;SDS011;27638;42.184;24.848;2023-04-15T01:20:24;4.38;;;2.80;;
41946;SDS011;27638;42.184;24.848;2023-04-15T01:22:51;3.15;;;2.22;;
41946;SDS011;27638;42.184;24.848;2023-04-15T01:25:19;4.03;;;2.75;;
41946;SDS011;27638;42.184;24.848;2023-04-15T01:27:59;6.30;;;2.47;;
41946;SDS011;27638;42.184;24.848;2023-04-15T01:30:25;6.25;;;3.08;;
41946;SDS011;27638;42.184;24.848;2023-04-15T01:32:51;6.15;;;3.13;;
41946;SDS011;27638;42.184;24.848;2023-04-15T01:35:17;4.43;;;3.10;;
41946;SDS011;27638;42.184;24.848;2023-04-15T01:37:43;6.45;;;4.32;;
41946;SDS011;27638;42.184;24.848;2023-04-15T01:40:09;6.85;;;4.50;;
41946;SDS011;27638;42.184;24.848;2023-04-15T01:42:35;7.20;;;4.97;;
41946;SDS011;27638;42.184;24.848;2023-04-15T01:45:01;7.85;;;4.80;;
41946;SDS011;27638;42.184;24.848;2023-04-15T01:47:27;8.75;;;5.30;;
41946;SDS011;27638;42.184;24.848;2023-04-15T01:49:52;6.72;;;4.80;;
41946;SDS011;27638;42.184;24.848;2023-04-15T01:52:18;8.00;;;4.80;;
41946;SDS011;27638;42.184;24.848;2023-04-15T01:54:44;8.13;;;4.47;;
41946;SDS011;27638;42.184;24.848;2023-04-15T01:57:09;6.88;;;4.43;;
41946;SDS011;27638;42.184;24.848;2023-04-15T01:59:35;8.68;;;5.05;;
41946;SDS011;27638;42.184;24.848;2023-04-15T02:02:01;6.25;;;4.63;;
41946;SDS011;27638;42.184;24.848;2023-04-15T02:04:26;6.15;;;4.03;;
41946;SDS011;27638;42.184;24.848;2023-04-15T02:06:52;4.85;;;4.07;;
41946;SDS011;27638;42.184;24.848;2023-04-15T02:09:18;6.03;;;4.20;;
41946;SDS011;27638;42.184;24.848;2023-04-15T02:11:44;6.90;;;4.38;;
41946;SDS011;27638;42.184;24.848;2023-04-15T02:14:09;6.05;;;4.07;;
41946;SDS011;27638;42.184;24.848;2023-04-15T02:16:35;7.60;;;4.00;;
41946;SDS011;27638;42.184;24.848;2023-04-15T02:19:00;8.07;;;4.18;;
41946;SDS011;27638;42.184;24.848;2023-04-15T02:21:27;4.60;;;3.53;;
41946;SDS011;27638;42.184;24.848;2023-04-15T02:23:52;6.28;;;3.90;;
41946;SDS011;27638;42.184;24.848;2023-04-15T02:26:18;6.68;;;3.97;;
41946;SDS011;27638;42.184;24.848;2023-04-15T02:28:45;7.07;;;4.18;;
41946;SDS011;27638;42.184;24.848;2023-04-15T02:31:11;12.65;;;5.22;;
41946;SDS011;27638;42.184;24.848;2023-04-15T02:33:36;8.10;;;5.28;;
41946;SDS011;27638;42.184;24.848;2023-04-15T02:36:02;6.20;;;4.22;;
41946;SDS011;27638;42.184;24.848;2023-04-15T02:38:28;8.63;;;5.15;;
41946;SDS011;27638;42.184;24.848;2023-04-15T02:40:55;8.60;;;4.82;;
41946;SDS011;27638;42.184;24.848;2023-04-15T02:43:21;8.65;;;4.93;;
41946;SDS011;27638;42.184;24.848;2023-04-15T02:45:47;7.50;;;4.75;;
41946;SDS011;27638;42.184;24.848;2023-04-15T02:48:12;7.35;;;4.88;;
41946;SDS011;27638;42.184;24.848;2023-04-15T02:50:38;6.65;;;4.70;;
41946;SDS011;27638;42.184;24.848;2023-04-15T02:53:05;7.68;;;5.32;;
41946;SDS011;27638;42.184;24.848;2023-04-15T02:55:31;6.57;;;4.97;;
41946;SDS011;27638;42.184;24.848;2023-04-15T02:57:56;6.32;;;4.90;;
41946;SDS011;27638;42.184;24.848;2023-04-15T03:00:25;8.20;;;5.45;;
41946;SDS011;27638;42.184;24.848;2023-04-15T03:02:56;8.35;;;4.85;;
41946;SDS011;27638;42.184;24.848;2023-04-15T03:05:28;7.32;;;5.20;;
41946;SDS011;27638;42.184;24.848;2023-04-15T03:07:54;8.50;;;4.72;;
41946;SDS011;27638;42.184;24.848;2023-04-15T03:10:20;8.98;;;4.90;;
41946;SDS011;27638;42.184;24.848;2023-04-15T03:12:46;7.07;;;4.65;;
41946;SDS011;27638;42.184;24.848;2023-04-15T03:15:11;6.13;;;4.03;;
41946;SDS011;27638;42.184;24.848;2023-04-15T03:17:37;7.50;;;3.97;;
41946;SDS011;27638;42.184;24.848;2023-04-15T03:20:03;5.65;;;4.40;;
41946;SDS011;27638;42.184;24.848;2023-04-15T03:22:30;5.28;;;4.05;;
41946;SDS011;27638;42.184;24.848;2023-04-15T03:24:57;6.57;;;4.05;;
41946;SDS011;27638;42.184;24.848;2023-04-15T03:27:22;6.97;;;4.07;;
41946;SDS011;27638;42.184;24.848;2023-04-15T03:29:48;6.35;;;4.45;;
41946;SDS011;27638;42.184;24.848;2023-04-15T03:32:14;6.07;;;4.05;;
41946;SDS011;27638;42.184;24.848;2023-04-15T03:34:40;5.43;;;4.00;;
41946;SDS011;27638;42.184;24.848;2023-04-15T03:37:09;6.15;;;4.40;;
41946;SDS011;27638;42.184;24.848;2023-04-15T03:39:34;4.50;;;3.42;;
41946;SDS011;27638;42.184;24.848;2023-04-15T03:42:00;4.50;;;2.90;;
41946;SDS011;27638;42.184;24.848;2023-04-15T03:44:26;6.15;;;3.22;;
41946;SDS011;27638;42.184;24.848;2023-04-15T03:46:52;6.45;;;3.35;;
41946;SDS011;27638;42.184;24.848;2023-04-15T03:49:17;5.13;;;3.13;;
41946;SDS011;27638;42.184;24.848;2023-04-15T03:51:44;9.27;;;3.22;;
41946;SDS011;27638;42.184;24.848;2023-04-15T03:54:10;6.03;;;3.40;;
41946;SDS011;27638;42.184;24.848;2023-04-15T03:56:36;7.80;;;4.07;;
41946;SDS011;27638;42.184;24.848;2023-04-15T03:59:02;4.93;;;3.38;;
41946;SDS011;27638;42.184;24.848;2023-04-15T04:01:28;6.10;;;3.50;;
41946;SDS011;27638;42.184;24.848;2023-04-15T04:03:53;4.85;;;3.00;;
41946;SDS011;27638;42.184;24.848;2023-04-15T04:06:19;5.35;;;2.97;;
41946;SDS011;27638;42.184;24.848;2023-04-15T04:08:44;5.20;;;3.15;;
41946;SDS011;27638;42.184;24.848;2023-04-15T04:11:10;6.85;;;3.20;;
41946;SDS011;27638;42.184;24.848;2023-04-15T04:13:36;4.28;;;3.60;;
41946;SDS011;27638;42.184;24.848;2023-04-15T04:16:01;9.52;;;4.95;;
41946;SDS011;27638;42.184;24.848;2023-04-15T04:18:28;5.07;;;3.55;;
41946;SDS011;27638;42.184;24.848;2023-04-15T04:20:55;4.80;;;3.15;;
41946;SDS011;27638;42.184;24.848;2023-04-15T04:23:21;7.43;;;4.00;;
41946;SDS011;27638;42.184;24.848;2023-04-15T04:25:46;5.32;;;3.40;;
41946;SDS011;27638;42.184;24.848;2023-04-15T04:28:12;3.80;;;3.38;;
41946;SDS011;27638;42.184;24.848;2023-04-15T04:30:37;4.65;;;3.50;;
41946;SDS011;27638;42.184;24.848;2023-04-15T04:33:04;8.57;;;2.90;;
41946;SDS011;27638;42.184;24.848;2023-04-15T04:35:29;6.75;;;3.65;;
41946;SDS011;27638;42.184;24.848;2023-04-15T04:37:55;5.43;;;3.17;;
41946;SDS011;27638;42.184;24.848;2023-04-15T04:40:21;5.78;;;3.42;;
41946;SDS011;27638;42.184;24.848;2023-04-15T04:42:46;9.50;;;6.13;;
41946;SDS011;27638;42.184;24.848;2023-04-15T04:45:12;9.10;;;5.97;;
41946;SDS011;27638;42.184;24.848;2023-04-15T04:47:38;8.30;;;4.53;;
41946;SDS011;27638;42.184;24.848;2023-04-15T04:50:03;9.25;;;5.43;;
41946;SDS011;27638;42.184;24.848;2023-04-15T04:52:29;7.25;;;5.78;;
41946;SDS011;27638;42.184;24.848;2023-04-15T04:54:55;8.68;;;5.65;;
41946;SDS011;27638;42.184;24.848;2023-04-15T04:57:20;10.70;;;8.68;;
41946;SDS011;27638;42.184;24.848;2023-04-15T04:59:46;9.70;;;7.18;;
41946;SDS011;27638;42.184;24.848;2023-04-15T05:02:12;10.80;;;6.63;;
41946;SDS011;27638;42.184;24.848;2023-04-15T05:04:37;9.80;;;6.07;;
41946;SDS011;27638;42.184;24.848;2023-04-15T05:07:03;5.13;;;3.72;;
41946;SDS011;27638;42.184;24.848;2023-04-15T05:09:28;6.55;;;4.13;;
41946;SDS011;27638;42.184;24.848;2023-04-15T05:11:56;4.18;;;3.40;;
41946;SDS011;27638;42.184;24.848;2023-04-15T05:14:22;8.73;;;4.28;;
41946;SDS011;27638;42.184;24.848;2023-04-15T05:16:47;6.22;;;4.53;;
41946;SDS011;27638;42.184;24.848;2023-04-15T05:19:13;5.60;;;4.00;;
41946;SDS011;27638;42.184;24.848;2023-04-15T05:21:39;6.15;;;3.92;;
41946;SDS011;27638;42.184;24.848;2023-04-15T05:24:05;5.75;;;3.67;;
41946;SDS011;27638;42.184;24.848;2023-04-15T05:26:31;5.25;;;3.47;;
41946;SDS011;27638;42.184;24.848;2023-04-15T05:28:56;5.88;;;3.45;;
41946;SDS011;27638;42.184;24.848;2023-04-15T05:31:22;6.10;;;3.90;;
41946;SDS011;27638;42.184;24.848;2023-04-15T05:33:48;4.55;;;3.28;;
41946;SDS011;27638;42.184;24.848;2023-04-15T05:36:13;6.32;;;3.40;;
41946;SDS011;27638;42.184;24.848;2023-04-15T05:38:39;5.70;;;3.90;;
41946;SDS011;27638;42.184;24.848;2023-04-15T05:41:05;9.18;;;4.68;;
41946;SDS011;27638;42.184;24.848;2023-04-15T05:43:30;4.72;;;3.95;;
41946;SDS011;27638;42.184;24.848;2023-04-15T05:45:56;6.65;;;4.57;;
41946;SDS011;27638;42.184;24.848;2023-04-15T05:48:21;5.30;;;3.60;;
41946;SDS011;27638;42.184;24.848;2023-04-15T05:50:47;6.97;;;3.40;;
41946;SDS011;27638;42.184;24.848;2023-04-15T05:53:12;3.90;;;2.92;;
41946;SDS011;27638;42.184;24.848;2023-04-15T05:55:38;12.35;;;5.53;;
41946;SDS011;27638;42.184;24.848;2023-04-15T05:58:04;5.47;;;3.55;;
41946;SDS011;27638;42.184;24.848;2023-04-15T06:00:29;7.90;;;4.70;;
41946;SDS011;27638;42.184;24.848;2023-04-15T06:02:55;32.28;;;12.65;;
41946;SDS011;27638;42.184;24.848;2023-04-15T06:05:22;9.38;;;4.53;;
41946;SDS011;27638;42.184;24.848;2023-04-15T06:07:48;10.25;;;5.97;;
41946;SDS011;27638;42.184;24.848;2023-04-15T06:10:14;4.40;;;2.92;;
41946;SDS011;27638;42.184;24.848;2023-04-15T06:12:40;6.10;;;3.90;;
41946;SDS011;27638;42.184;24.848;2023-04-15T06:15:06;4.57;;;3.30;;
41946;SDS011;27638;42.184;24.848;2023-04-15T06:17:34;4.53;;;3.22;;
41946;SDS011;27638;42.184;24.848;2023-04-15T06:20:00;4.75;;;3.15;;
41946;SDS011;27638;42.184;24.848;2023-04-15T06:22:25;14.00;;;7.53;;
41946;SDS011;27638;42.184;24.848;2023-04-15T06:24:51;5.80;;;3.50;;
41946;SDS011;27638;42.184;24.848;2023-04-15T06:27:17;9.88;;;5.72;;
41946;SDS011;27638;42.184;24.848;2023-04-15T06:29:43;23.48;;;9.85;;
41946;SDS011;27638;42.184;24.848;2023-04-15T06:32:08;5.88;;;3.40;;
41946;SDS011;27638;42.184;24.848;2023-04-15T06:34:34;17.98;;;8.18;;
41946;SDS011;27638;42.184;24.848;2023-04-15T06:37:00;8.05;;;5.47;;
41946;SDS011;27638;42.184;24.848;2023-04-15T06:39:25;9.25;;;4.65;;
41946;SDS011;27638;42.184;24.848;2023-04-15T06:41:51;7.28;;;4.88;;
41946;SDS011;27638;42.184;24.848;2023-04-15T06:44:17;9.50;;;5.68;;
41946;SDS011;27638;42.184;24.848;2023-04-15T06:46:42;8.07;;;5.47;;
41946;SDS011;27638;42.184;24.848;2023-04-15T06:49:08;10.80;;;5.65;;
41946;SDS011;27638;42.184;24.848;2023-04-15T06:51:34;8.43;;;5.32;;
41946;SDS011;27638;42.184;24.848;2023-04-15T06:54:00;10.27;;;4.97;;
41946;SDS011;27638;42.184;24.848;2023-04-15T06:56:26;9.10;;;5.30;;
41946;SDS011;27638;42.184;24.848;2023-04-15T06:58:52;6.40;;;4.43;;
41946;SDS011;27638;42.184;24.848;2023-04-15T07:01:17;9.18;;;4.53;;
41946;SDS011;27638;42.184;24.848;2023-04-15T07:03:43;7.38;;;4.28;;
41946;SDS011;27638;42.184;24.848;2023-04-15T07:06:09;7.40;;;4.15;;
41946;SDS011;27638;42.184;24.848;2023-04-15T07:08:34;5.90;;;4.05;;
41946;SDS011;27638;42.184;24.848;2023-04-15T07:11:00;5.95;;;3.67;;
41946;SDS011;27638;42.184;24.848;2023-04-15T07:13:25;4.55;;;3.17;;
41946;SDS011;27638;42.184;24.848;2023-04-15T07:15:51;4.50;;;3.47;;
41946;SDS011;27638;42.184;24.848;2023-04-15T07:18:16;4.82;;;3.55;;
41946;SDS011;27638;42.184;24.848;2023-04-15T07:20:42;4.45;;;2.90;;
41946;SDS011;27638;42.184;24.848;2023-04-15T07:23:08;3.92;;;3.28;;
41946;SDS011;27638;42.184;24.848;2023-04-15T07:25:33;4.28;;;3.00;;
41946;SDS011;27638;42.184;24.848;2023-04-15T07:27:59;5.55;;;2.80;;
41946;SDS011;27638;42.184;24.848;2023-04-15T07:30:24;4.63;;;2.95;;
41946;SDS011;27638;42.184;24.848;2023-04-15T07:32:50;8.73;;;3.38;;
41946;SDS011;27638;42.184;24.848;2023-04-15T07:35:15;4.15;;;2.90;;
41946;SDS011;27638;42.184;24.848;2023-04-15T07:37:41;5.28;;;2.65;;
41946;SDS011;27638;42.184;24.848;2023-04-15T07:40:07;4.75;;;2.83;;
41946;SDS011;27638;42.184;24.848;2023-04-15T07:42:34;4.53;;;2.97;;
41946;SDS011;27638;42.184;24.848;2023-04-15T07:44:59;3.40;;;2.72;;
41946;SDS011;27638;42.184;24.848;2023-04-15T07:47:25;2.20;;;2.00;;
41946;SDS011;27638;42.184;24.848;2023-04-15T07:49:51;3.00;;;2.53;;
41946;SDS011;27638;42.184;24.848;2023-04-15T07:52:17;4.30;;;2.22;;
41946;SDS011;27638;42.184;24.848;2023-04-15T07:54:43;5.70;;;3.08;;
41946;SDS011;27638;42.184;24.848;2023-04-15T07:57:09;4.20;;;2.38;;
41946;SDS011;27638;42.184;24.848;2023-04-15T07:59:35;5.70;;;2.70;;
41946;SDS011;27638;42.184;24.848;2023-04-15T08:02:01;3.92;;;2.90;;
41946;SDS011;27638;42.184;24.848;2023-04-15T08:04:27;4.63;;;2.70;;
41946;SDS011;27638;42.184;24.848;2023-04-15T08:06:53;5.30;;;3.63;;
41946;SDS011;27638;42.184;24.848;2023-04-15T08:09:18;3.95;;;3.40;;
41946;SDS011;27638;42.184;24.848;2023-04-15T08:11:47;4.78;;;3.13;;
41946;SDS011;27638;42.184;24.848;2023-04-15T08:14:13;3.60;;;3.13;;
41946;SDS011;27638;42.184;24.848;2023-04-15T08:16:38;7.72;;;3.13;;
41946;SDS011;27638;42.184;24.848;2023-04-15T08:19:04;5.97;;;3.40;;
41946;SDS011;27638;42.184;24.848;2023-04-15T08:21:30;5.20;;;3.33;;
41946;SDS011;27638;42.184;24.848;2023-04-15T08:23:55;4.75;;;3.10;;
41946;SDS011;27638;42.184;24.848;2023-04-15T08:26:21;5.07;;;3.15;;
41946;SDS011;27638;42.184;24.848;2023-04-15T08:28:47;9.73;;;4.22;;
41946;SDS011;27638;42.184;24.848;2023-04-15T08:31:13;5.50;;;3.08;;
41946;SDS011;27638;42.184;24.848;2023-04-15T08:33:40;2.45;;;2.00;;
41946;SDS011;27638;42.184;24.848;2023-04-15T08:36:06;5.60;;;3.10;;
41946;SDS011;27638;42.184;24.848;2023-04-15T08:38:32;5.88;;;2.90;;
41946;SDS011;27638;42.184;24.848;2023-04-15T08:40:59;4.55;;;2.30;;
41946;SDS011;27638;42.184;24.848;2023-04-15T08:43:28;4.25;;;2.50;;
41946;SDS011;27638;42.184;24.848;2023-04-15T08:45:59;5.85;;;2.90;;
41946;SDS011;27638;42.184;24.848;2023-04-15T08:48:29;4.20;;;3.50;;
41946;SDS011;27638;42.184;24.848;2023-04-15T08:50:57;4.05;;;2.80;;
41946;SDS011;27638;42.184;24.848;2023-04-15T08:53:23;5.18;;;2.92;;
41946;SDS011;27638;42.184;24.848;2023-04-15T08:55:51;4.57;;;3.08;;
41946;SDS011;27638;42.184;24.848;2023-04-15T08:58:17;4.28;;;2.40;;
41946;SDS011;27638;42.184;24.848;2023-04-15T09:00:43;7.00;;;2.92;;
41946;SDS011;27638;42.184;24.848;2023-04-15T09:03:10;4.93;;;2.63;;
41946;SDS011;27638;42.184;24.848;2023-04-15T09:05:36;3.08;;;2.03;;
41946;SDS011;27638;42.184;24.848;2023-04-15T09:08:02;3.88;;;2.60;;
41946;SDS011;27638;42.184;24.848;2023-04-15T09:10:29;3.13;;;2.15;;
41946;SDS011;27638;42.184;24.848;2023-04-15T09:12:55;4.78;;;3.00;;
41946;SDS011;27638;42.184;24.848;2023-04-15T09:15:23;8.75;;;3.90;;
41946;SDS011;27638;42.184;24.848;2023-04-15T09:17:51;5.75;;;2.65;;
41946;SDS011;27638;42.184;24.848;2023-04-15T09:20:17;3.40;;;2.30;;
41946;SDS011;27638;42.184;24.848;2023-04-15T09:22:44;8.57;;;5.40;;
41946;SDS011;27638;42.184;24.848;2023-04-15T09:27:52;8.77;;;6.22;;
41946;SDS011;27638;42.184;24.848;2023-04-15T09:30:19;8.10;;;5.95;;
41946;SDS011;27638;42.184;24.848;2023-04-15T09:32:49;9.00;;;6.20;;
41946;SDS011;27638;42.184;24.848;2023-04-15T09:35:16;10.30;;;6.45;;
41946;SDS011;27638;42.184;24.848;2023-04-15T09:37:41;10.25;;;6.32;;
41946;SDS011;27638;42.184;24.848;2023-04-15T09:40:07;11.25;;;7.30;;
41946;SDS011;27638;42.184;24.848;2023-04-15T09:42:34;12.00;;;7.13;;
41946;SDS011;27638;42.184;24.848;2023-04-15T09:45:07;9.32;;;5.78;;
41946;SDS011;27638;42.184;24.848;2023-04-15T09:47:35;8.25;;;6.68;;
41946;SDS011;27638;42.184;24.848;2023-04-15T09:50:01;13.68;;;7.60;;
41946;SDS011;27638;42.184;24.848;2023-04-15T09:52:27;9.27;;;7.00;;
41946;SDS011;27638;42.184;24.848;2023-04-15T09:54:53;12.50;;;7.75;;
41946;SDS011;27638;42.184;24.848;2023-04-15T09:57:20;13.82;;;7.60;;
41946;SDS011;27638;42.184;24.848;2023-04-15T09:59:46;10.40;;;7.63;;
41946;SDS011;27638;42.184;24.848;2023-04-15T10:02:12;8.48;;;7.05;;
41946;SDS011;27638;42.184;24.848;2023-04-15T10:04:39;10.88;;;6.70;;
41946;SDS011;27638;42.184;24.848;2023-04-15T10:07:09;13.07;;;8.40;;
41946;SDS011;27638;42.184;24.848;2023-04-15T10:09:35;10.90;;;7.65;;
41946;SDS011;27638;42.184;24.848;2023-04-15T10:12:03;12.63;;;7.88;;
41946;SDS011;27638;42.184;24.848;2023-04-15T10:14:34;12.77;;;7.85;;
41946;SDS011;27638;42.184;24.848;2023-04-15T10:17:03;7.07;;;6.22;;
41946;SDS011;27638;42.184;24.848;2023-04-15T10:19:33;9.68;;;7.03;;
41946;SDS011;27638;42.184;24.848;2023-04-15T10:22:01;8.13;;;5.88;;
41946;SDS011;27638;42.184;24.848;2023-04-15T10:24:27;8.90;;;6.22;;
41946;SDS011;27638;42.184;24.848;2023-04-15T10:26:54;9.50;;;6.45;;
41946;SDS011;27638;42.184;24.848;2023-04-15T10:29:22;8.43;;;6.30;;
41946;SDS011;27638;42.184;24.848;2023-04-15T10:31:51;9.27;;;6.57;;
41946;SDS011;27638;42.184;24.848;2023-04-15T10:34:18;6.05;;;4.97;;
41946;SDS011;27638;42.184;24.848;2023-04-15T10:36:45;7.88;;;6.07;;
41946;SDS011;27638;42.184;24.848;2023-04-15T10:42:05;8.48;;;5.63;;
41946;SDS011;27638;42.184;24.848;2023-04-15T10:44:31;9.90;;;4.90;;
41946;SDS011;27638;42.184;24.848;2023-04-15T10:46:56;8.02;;;5.05;;
41946;SDS011;27638;42.184;24.848;2023-04-15T10:49:23;8.13;;;4.95;;
41946;SDS011;27638;42.184;24.848;2023-04-15T10:51:50;8.38;;;5.32;;
41946;SDS011;27638;42.184;24.848;2023-04-15T10:57:07;8.10;;;5.10;;
41946;SDS011;27638;42.184;24.848;2023-04-15T11:02:40;4.20;;;2.80;;
41946;SDS011;27638;42.184;24.848;2023-04-15T11:05:07;5.18;;;3.90;;
41946;SDS011;27638;42.184;24.848;2023-04-15T11:07:35;8.25;;;3.45;;
41946;SDS011;27638;42.184;24.848;2023-04-15T11:10:03;7.32;;;3.83;;
41946;SDS011;27638;42.184;24.848;2023-04-15T11:20:38;4.30;;;2.85;;
41946;SDS011;27638;42.184;24.848;2023-04-15T11:23:05;5.80;;;3.38;;
41946;SDS011;27638;42.184;24.848;2023-04-15T11:25:31;4.28;;;2.85;;
41946;SDS011;27638;42.184;24.848;2023-04-15T11:27:58;5.18;;;3.42;;
41946;SDS011;27638;42.184;24.848;2023-04-15T11:30:27;5.53;;;2.55;;
41946;SDS011;27638;42.184;24.848;2023-04-15T11:32:57;4.82;;;2.80;;
41946;SDS011;27638;42.184;24.848;2023-04-15T11:35:25;6.95;;;2.90;;
41946;SDS011;27638;42.184;24.848;2023-04-15T11:37:52;5.15;;;2.45;;
41946;SDS011;27638;42.184;24.848;2023-04-15T11:40:22;4.32;;;2.40;;
41946;SDS011;27638;42.184;24.848;2023-04-15T11:45:34;3.42;;;2.08;;
41946;SDS011;27638;42.184;24.848;2023-04-15T11:48:07;5.20;;;2.13;;
41946;SDS011;27638;42.184;24.848;2023-04-15T11:50:35;2.20;;;1.42;;
41946;SDS011;27638;42.184;24.848;2023-04-15T11:53:05;2.33;;;1.80;;
41946;SDS011;27638;42.184;24.848;2023-04-15T11:55:40;3.83;;;1.60;;
41946;SDS011;27638;42.184;24.848;2023-04-15T11:58:14;3.63;;;1.70;;
41946;SDS011;27638;42.184;24.848;2023-04-15T12:00:46;2.08;;;1.40;;
41946;SDS011;27638;42.184;24.848;2023-04-15T12:03:18;3.65;;;1.50;;
41946;SDS011;27638;42.184;24.848;2023-04-15T12:06:04;2.85;;;1.48;;
41946;SDS011;27638;42.184;24.848;2023-04-15T12:11:20;2.88;;;1.48;;
41946;SDS011;27638;42.184;24.848;2023-04-15T12:16:41;3.08;;;1.50;;
41946;SDS011;27638;42.184;24.848;2023-04-15T12:19:12;2.92;;;1.58;;
41946;SDS011;27638;42.184;24.848;2023-04-15T12:21:39;2.08;;;1.20;;
41946;SDS011;27638;42.184;24.848;2023-04-15T12:24:08;3.47;;;1.58;;
41946;SDS011;27638;42.184;24.848;2023-04-15T12:29:11;2.53;;;1.40;;
41946;SDS011;27638;42.184;24.848;2023-04-15T12:31:47;3.33;;;1.42;;
41946;SDS011;27638;42.184;24.848;2023-04-15T12:34:30;3.05;;;1.50;;
41946;SDS011;27638;42.184;24.848;2023-04-15T12:36:57;3.75;;;1.83;;
41946;SDS011;27638;42.184;24.848;2023-04-15T12:39:24;2.85;;;1.60;;
41946;SDS011;27638;42.184;24.848;2023-04-15T12:41:52;3.70;;;1.75;;
41946;SDS011;27638;42.184;24.848;2023-04-15T12:44:18;1.85;;;1.60;;
41946;SDS011;27638;42.184;24.848;2023-04-15T12:46:44;7.13;;;1.95;;
41946;SDS011;27638;42.184;24.848;2023-04-15T12:49:10;2.90;;;1.30;;
41946;SDS011;27638;42.184;24.848;2023-04-15T12:51:38;3.95;;;1.55;;
41946;SDS011;27638;42.184;24.848;2023-04-15T12:54:04;3.08;;;1.73;;
41946;SDS011;27638;42.184;24.848;2023-04-15T12:56:29;2.78;;;1.50;;
41946;SDS011;27638;42.184;24.848;2023-04-15T12:58:55;3.22;;;1.58;;
41946;SDS011;27638;42.184;24.848;2023-04-15T13:01:20;1.83;;;1.42;;
41946;SDS011;27638;42.184;24.848;2023-04-15T13:03:46;2.47;;;1.88;;
41946;SDS011;27638;42.184;24.848;2023-04-15T13:06:12;5.65;;;2.22;;
41946;SDS011;27638;42.184;24.848;2023-04-15T13:08:37;4.75;;;1.77;;
41946;SDS011;27638;42.184;24.848;2023-04-15T13:11:03;3.05;;;1.42;;
41946;SDS011;27638;42.184;24.848;2023-04-15T13:13:28;3.75;;;1.85;;
41946;SDS011;27638;42.184;24.848;2023-04-15T13:15:56;5.65;;;1.80;;
41946;SDS011;27638;42.184;24.848;2023-04-15T13:18:21;3.17;;;1.60;;
41946;SDS011;27638;42.184;24.848;2023-04-15T13:20:47;3.80;;;1.67;;
41946;SDS011;27638;42.184;24.848;2023-04-15T13:23:13;2.30;;;1.60;;
41946;SDS011;27638;42.184;24.848;2023-04-15T13:25:39;3.13;;;1.70;;
41946;SDS011;27638;42.184;24.848;2023-04-15T13:28:05;3.33;;;1.88;;
41946;SDS011;27638;42.184;24.848;2023-04-15T13:30:30;1.88;;;1.50;;
41946;SDS011;27638;42.184;24.848;2023-04-15T13:32:56;5.50;;;1.95;;
41946;SDS011;27638;42.184;24.848;2023-04-15T13:35:22;2.38;;;1.70;;
41946;SDS011;27638;42.184;24.848;2023-04-15T13:37:47;3.53;;;2.00;;
41946;SDS011;27638;42.184;24.848;2023-04-15T13:40:12;3.78;;;2.65;;
41946;SDS011;27638;42.184;24.848;2023-04-15T13:42:38;5.53;;;1.50;;
41946;SDS011;27638;42.184;24.848;2023-04-15T13:45:03;1.88;;;1.48;;
41946;SDS011;27638;42.184;24.848;2023-04-15T13:47:29;3.95;;;1.60;;
41946;SDS011;27638;42.184;24.848;2023-04-15T13:49:55;5.72;;;2.00;;
41946;SDS011;27638;42.184;24.848;2023-04-15T13:52:21;2.58;;;1.65;;
41946;SDS011;27638;42.184;24.848;2023-04-15T13:54:47;4.72;;;1.50;;
41946;SDS011;27638;42.184;24.848;2023-04-15T13:57:12;3.47;;;1.45;;
41946;SDS011;27638;42.184;24.848;2023-04-15T13:59:38;3.75;;;1.98;;
41946;SDS011;27638;42.184;24.848;2023-04-15T14:02:03;3.30;;;1.67;;
41946;SDS011;27638;42.184;24.848;2023-04-15T14:04:29;3.53;;;1.70;;
41946;SDS011;27638;42.184;24.848;2023-04-15T14:06:55;3.47;;;1.75;;
41946;SDS011;27638;42.184;24.848;2023-04-15T14:09:21;2.75;;;1.60;;
41946;SDS011;27638;42.184;24.848;2023-04-15T14:11:48;4.20;;;1.73;;
41946;SDS011;27638;42.184;24.848;2023-04-15T14:14:16;2.88;;;1.80;;
41946;SDS011;27638;42.184;24.848;2023-04-15T14:16:41;3.53;;;2.10;;
41946;SDS011;27638;42.184;24.848;2023-04-15T14:19:07;3.97;;;1.63;;
41946;SDS011;27638;42.184;24.848;2023-04-15T14:21:32;4.13;;;1.40;;
41946;SDS011;27638;42.184;24.848;2023-04-15T14:23:58;6.80;;;2.60;;
41946;SDS011;27638;42.184;24.848;2023-04-15T14:26:23;3.63;;;1.90;;
41946;SDS011;27638;42.184;24.848;2023-04-15T14:28:49;3.08;;;1.88;;
41946;SDS011;27638;42.184;24.848;2023-04-15T14:31:15;4.68;;;2.00;;
41946;SDS011;27638;42.184;24.848;2023-04-15T14:33:40;3.10;;;2.03;;
41946;SDS011;27638;42.184;24.848;2023-04-15T14:36:06;3.65;;;1.77;;
41946;SDS011;27638;42.184;24.848;2023-04-15T14:38:33;4.88;;;2.00;;
41946;SDS011;27638;42.184;24.848;2023-04-15T14:41:04;4.28;;;1.77;;
41946;SDS011;27638;42.184;24.848;2023-04-15T14:43:30;3.78;;;1.98;;
41946;SDS011;27638;42.184;24.848;2023-04-15T14:45:56;3.15;;;1.55;;
41946;SDS011;27638;42.184;24.848;2023-04-15T14:48:21;3.80;;;1.92;;
41946;SDS011;27638;42.184;24.848;2023-04-15T14:50:46;3.25;;;1.73;;
41946;SDS011;27638;42.184;24.848;2023-04-15T14:53:12;3.08;;;1.85;;
41946;SDS011;27638;42.184;24.848;2023-04-15T14:55:37;5.60;;;1.90;;
41946;SDS011;27638;42.184;24.848;2023-04-15T14:58:03;3.88;;;2.00;;
41946;SDS011;27638;42.184;24.848;2023-04-15T15:00:28;7.90;;;2.88;;